Airfield :







YOU CAN JOIN US ON...

 
LOGIN :

Register | Disclaimer

   EN    FR    IT 

 









Legend :    VFR   Marginal VFR   IFR   Intensive IFR   Very Intensive IFR
Visi :
Ceiling :
>= 8 km
>= 3000ft
5 to 8 km
1000 to 3000 ft
1500m to 5 km
500 to 1000 ft
800 to 1500m
200 to 500 ft
< 800m
< 200 ft
Symbols :   Thunderstorms  Fog  Heavy snow  Heavy precipitations  Wind > 20 kt







- Airport Elevation : 121 ft
- IATA code : YBX


CYBX - Lourdes De Blanc Sablon

CURRENT METAR :
  • 221400Z 24008KT 10SM FEW002 FEW015 OVC250 02/02 A2997 RMK SC1SC1CI6 VIS 2 NW - NE 2 SLP152

EXPIRED METARs :
  • 221354Z 25008KT 8SM FEW002 FEW015 OVC250 02/02 A2997 RMK SC1SC1CI6 VIS N - SE 2 SLP151
  • 221338Z 26006KT 1/2SM FG BKN002 BKN006 02/02 A2996 RMK FG3SC2SC1 SLP150
  • 221300Z 25004KT 1/8SM FG VV002 01/01 A2996 RMK FG8 SLP151
  • 221200Z 27006KT 1/8SM FG VV002 00/00 A2995 RMK FG8 SLP147

TAF AMD TAF CYBX
Valid from the 22 at 14:00 until the 23 at 02:00 UTC


221411Z 2214/2302 25008KT P6SM FEW005 OVC240
TEMPO 2214/2215 4SM BR BKN005 OVC240
FM221600 29012G22KT P6SM FEW020 BKN240
TEMPO 2218/2220 BKN020 BKN240
FM222000 30010G20KT P6SM BKN025
TEMPO 2220/2302 OVC020 RMK NXT FCST BY 222000Z
CZUL FIR / North America



MET'MAP, your aeronautical weather chart ! - Copyright ORBIFLY December 2007 - Disclaimer

ORBIFLY MET'MAP TEAM :

Programming & Development : Alexandra Zaïnal
Concept & Development : Baudouin d'Aumeries
Co-Development & Prog : Marc-Olivier Méhu
Technical & hardware support : Manuel Goepfert

Contact : metmap@orbifly.com




SOURCES & CREDITS :

   NOAA